Fairchem Colt — V7KS9 — position and weather

sailwx.info

Track history (hours):
 
Tides and Currents Weather Stations Pressure Air Temp Water Temp Dewpoint Dewpoint Depression Visibility Wind Speed Wind Dir Waves Ship Positions

Fairchem Colt

Last reported at 2017-Oct-05 01:43 UTC. Time now 2017-Oct-18 09:37 UTC.
Position N 37°13' E 025°50'.
Warning: this ship's position is 13 days out of date.

Length 146 m; draft 10 m.

Type: Ship (hazmat cat B). MMSI: 538006225.

Date/timePositionNaut miles runAvg speedWind from/ knotsBaromVisibWave heightAir tempDewpointWater temp
2017-Oct-05 01:43N 37°13' E 025°50'312.6
2017-Oct-05 01:30N 37°14' E 025°48'612.3
2017-Oct-05 01:00N 37°20' E 025°45'612.2
2017-Oct-05 00:30N 37°26' E 025°43'612.4
2017-Oct-05 00:00N 37°32' E 025°41'612.0
2017-Oct-04 23:30N 37°38' E 025°39'612.0
2017-Oct-04 23:00N 37°44' E 025°37'612.1
2017-Oct-04 22:30N 37°49' E 025°35'242 8.7
2017-Oct-03 18:43N 40°57' E 028°53'1 0.5
2017-Oct-03 17:16N 40°56' E 028°54'3 6.5
2017-Oct-03 16:51N 40°56' E 028°57'4 6.6
2017-Oct-03 16:18N 40°53' E 029°00'310.0
2017-Oct-03 16:00N 40°51' E 029°02'510.8
2017-Oct-03 15:30N 40°46' E 029°06'5 9.4
2017-Oct-03 15:00N 40°44' E 029°12'1210.0
2017-Oct-03 13:49N 40°45' E 029°27'3 9.3
2017-Oct-03 13:28N 40°45' E 029°32'1 0.0
2017-Oct-02 09:23N 40°45' E 029°30'411.2
2017-Oct-02 08:59N 40°44' E 029°25'4 7.2
2017-Oct-02 08:30N 40°44' E 029°20'4 8.7
2017-Oct-02 08:01N 40°44' E 029°14'610.3
2017-Oct-02 07:26N 40°44' E 029°07'4 8.5
2017-Oct-02 07:00N 40°44' E 029°02'2 3.3
2017-Oct-02 06:30N 40°44' E 028°60'  
2017-Sep-29 04:26N 36°19' E 014°52'612.8
2017-Sep-29 03:59N 36°19' E 014°45'713.1
2017-Sep-29 03:29N 36°19' E 014°37'613.0
2017-Sep-29 03:00N 36°20' E 014°29'612.7
2017-Sep-29 02:30N 36°20' E 014°21'612.6
2017-Sep-29 02:00N 36°22' E 014°14'612.7
2017-Sep-29 01:30N 36°24' E 014°06'612.6
2017-Sep-29 01:00N 36°26' E 013°59'612.6
2017-Sep-29 00:30N 36°28' E 013°51'  
2017-Sep-25 21:53N 36°02' W 005°04'513.1
2017-Sep-25 21:30N 36°02' W 005°10'612.8
2017-Sep-25 21:00N 36°01' W 005°18'611.3
2017-Sep-25 20:30N 36°06' W 005°22'3 5.7
2017-Sep-25 19:59N 36°08' W 005°22'0 0.2
2017-Sep-25 19:20N 36°08' W 005°22'0 0.2
2017-Sep-25 18:56N 36°08' W 005°22'0 0.3
2017-Sep-25 18:26N 36°09' W 005°22'0 0.1
2017-Sep-25 17:56N 36°09' W 005°22'0 0.0
2017-Sep-25 17:14N 36°09' W 005°22'0 0.0
2017-Sep-25 16:53N 36°09' W 005°22'0 0.2
2017-Sep-25 16:23N 36°09' W 005°22'0 0.0
2017-Sep-25 15:59N 36°09' W 005°22'0 0.0
2017-Sep-25 12:22N 36°09' W 005°22'4 3.8
2017-Sep-25 11:18N 36°05' W 005°21'1 3.0
2017-Sep-25 10:58N 36°04' W 005°20'0 1.0
2017-Sep-25 10:30N 36°04' W 005°20'1 2.5
2017-Sep-25 10:00N 36°03' W 005°18'1 1.9
2017-Sep-25 09:30N 36°02' W 005°19'2 4.7
2017-Sep-25 09:00N 36°01' W 005°21'3 6.6
2017-Sep-25 08:30N 35°59' W 005°24'5 9.8
2017-Sep-25 08:00N 35°57' W 005°30'  
Track history (hours):
 
Tides and Currents Weather Stations Pressure Air Temp Water Temp Dewpoint Dewpoint Depression Visibility Wind Speed Wind Dir Waves Ship Positions

Fairchem Colt

Last reported at 2017-Oct-05 01:43 UTC. Time now 2017-Oct-18 09:37 UTC.
Position N 37°13' E 025°50'.
Warning: this ship's position is 13 days out of date.

Length 146 m; draft 10 m.

Type: Ship (hazmat cat B). MMSI: 538006225.

Date/timePositionNaut miles runAvg speedWind from/ knotsBaromVisibWave heightAir tempDewpointWater temp
2017-Oct-05 01:43N 37°13' E 025°50'312.6
2017-Oct-05 01:30N 37°14' E 025°48'612.3
2017-Oct-05 01:00N 37°20' E 025°45'612.2
2017-Oct-05 00:30N 37°26' E 025°43'612.4
2017-Oct-05 00:00N 37°32' E 025°41'612.0
2017-Oct-04 23:30N 37°38' E 025°39'612.0
2017-Oct-04 23:00N 37°44' E 025°37'612.1
2017-Oct-04 22:30N 37°49' E 025°35'242 8.7
2017-Oct-03 18:43N 40°57' E 028°53'1 0.5
2017-Oct-03 17:16N 40°56' E 028°54'3 6.5
2017-Oct-03 16:51N 40°56' E 028°57'4 6.6
2017-Oct-03 16:18N 40°53' E 029°00'310.0
2017-Oct-03 16:00N 40°51' E 029°02'510.8
2017-Oct-03 15:30N 40°46' E 029°06'5 9.4
2017-Oct-03 15:00N 40°44' E 029°12'1210.0
2017-Oct-03 13:49N 40°45' E 029°27'3 9.3
2017-Oct-03 13:28N 40°45' E 029°32'1 0.0
2017-Oct-02 09:23N 40°45' E 029°30'411.2
2017-Oct-02 08:59N 40°44' E 029°25'4 7.2
2017-Oct-02 08:30N 40°44' E 029°20'4 8.7
2017-Oct-02 08:01N 40°44' E 029°14'610.3
2017-Oct-02 07:26N 40°44' E 029°07'4 8.5
2017-Oct-02 07:00N 40°44' E 029°02'2 3.3
2017-Oct-02 06:30N 40°44' E 028°60'  
2017-Sep-29 04:26N 36°19' E 014°52'612.8
2017-Sep-29 03:59N 36°19' E 014°45'713.1
2017-Sep-29 03:29N 36°19' E 014°37'613.0
2017-Sep-29 03:00N 36°20' E 014°29'612.7
2017-Sep-29 02:30N 36°20' E 014°21'612.6
2017-Sep-29 02:00N 36°22' E 014°14'612.7
2017-Sep-29 01:30N 36°24' E 014°06'612.6
2017-Sep-29 01:00N 36°26' E 013°59'612.6
2017-Sep-29 00:30N 36°28' E 013°51'  
2017-Sep-25 21:53N 36°02' W 005°04'513.1
2017-Sep-25 21:30N 36°02' W 005°10'612.8
2017-Sep-25 21:00N 36°01' W 005°18'611.3
2017-Sep-25 20:30N 36°06' W 005°22'3 5.7
2017-Sep-25 19:59N 36°08' W 005°22'0 0.2
2017-Sep-25 19:20N 36°08' W 005°22'0 0.2
2017-Sep-25 18:56N 36°08' W 005°22'0 0.3
2017-Sep-25 18:26N 36°09' W 005°22'0 0.1
2017-Sep-25 17:56N 36°09' W 005°22'0 0.0
2017-Sep-25 17:14N 36°09' W 005°22'0 0.0
2017-Sep-25 16:53N 36°09' W 005°22'0 0.2
2017-Sep-25 16:23N 36°09' W 005°22'0 0.0
2017-Sep-25 15:59N 36°09' W 005°22'0 0.0
2017-Sep-25 12:22N 36°09' W 005°22'4 3.8
2017-Sep-25 11:18N 36°05' W 005°21'1 3.0
2017-Sep-25 10:58N 36°04' W 005°20'0 1.0
2017-Sep-25 10:30N 36°04' W 005°20'1 2.5
2017-Sep-25 10:00N 36°03' W 005°18'1 1.9
2017-Sep-25 09:30N 36°02' W 005°19'2 4.7
2017-Sep-25 09:00N 36°01' W 005°21'3 6.6
2017-Sep-25 08:30N 35°59' W 005°24'5 9.8
2017-Sep-25 08:00N 35°57' W 005°30'  

Dump ship's entire track history